Delta Virtual Airport Information Service

Tucson International Airport

ICAO: KTUS Country: United States
Latitude: 32.1161 Longitude: -110.941
Latest Arrival : AAL1967 (B) (KLAX-KTUS) Latest Departure : AAL1831 (D) (KTUS-KPHX)


WX CaptureLIVE
Data provided by noaa.gov | Fetched at 10:42:23

METAR : KTUS 231553Z 18004KT 10SM CLR 16/02 A2992 RMK AO2 SLP099 T01610017

TAF : KTUS 231120Z 2312/2412 14008KT P6SM SCT250 FM231800 20011KT P6SM SCT250 FM231900 20013G19KT P6SM SCT250 FM232100 22016G24KT P6SM SCT200 FM240200 21011KT P6SM SCT200


Runway Data for KTUS
Data provided by openaviationdata.com

Runway ID Mag Var Hdg Length Elevation Surface ILS Freq ILS Id ILS Slope
3 12 32° 7003 ft 2587 ft Asphalt -- -- --
11L 12 123° 11000 ft 2587 ft Asphalt 111.7 ITUS 3
11R 12 123° 8411 ft 2587 ft Asphalt -- -- --
21 12 212° 7003 ft 2587 ft Asphalt -- -- --
29L 12 303° 8411 ft 2587 ft Asphalt -- -- --
29R 12 303° 11000 ft 2587 ft Asphalt -- -- --

Tucson International Airport, United States
Use only for reference purposes



Not for navigational purposes.